sensor_id;sensor_type;location;lat;lon;timestamp;P1;durP1;ratioP1;P2;durP2;ratioP2
54545;SDS011;40444;45.184;9.850;2023-03-19T00:01:06;34.88;;;24.05;;
54545;SDS011;40444;45.184;9.850;2023-03-19T00:03:35;38.05;;;25.08;;
54545;SDS011;40444;45.184;9.850;2023-03-19T00:06:03;36.80;;;23.70;;
54545;SDS011;40444;45.184;9.850;2023-03-19T00:08:32;35.05;;;24.23;;
54545;SDS011;40444;45.184;9.850;2023-03-19T00:11:04;34.78;;;24.25;;
54545;SDS011;40444;45.184;9.850;2023-03-19T00:13:34;33.67;;;22.75;;
54545;SDS011;40444;45.184;9.850;2023-03-19T00:16:02;33.78;;;22.38;;
54545;SDS011;40444;45.184;9.850;2023-03-19T00:18:32;32.05;;;22.00;;
54545;SDS011;40444;45.184;9.850;2023-03-19T00:21:00;31.60;;;22.17;;
54545;SDS011;40444;45.184;9.850;2023-03-19T00:23:28;31.20;;;21.77;;
54545;SDS011;40444;45.184;9.850;2023-03-19T00:25:58;30.17;;;21.90;;
54545;SDS011;40444;45.184;9.850;2023-03-19T00:28:26;33.88;;;22.52;;
54545;SDS011;40444;45.184;9.850;2023-03-19T00:30:55;32.95;;;22.48;;
54545;SDS011;40444;45.184;9.850;2023-03-19T00:33:27;33.00;;;21.98;;
54545;SDS011;40444;45.184;9.850;2023-03-19T00:35:55;32.40;;;22.05;;
54545;SDS011;40444;45.184;9.850;2023-03-19T00:38:25;33.72;;;21.40;;
54545;SDS011;40444;45.184;9.850;2023-03-19T00:40:54;30.30;;;21.17;;
54545;SDS011;40444;45.184;9.850;2023-03-19T00:43:23;29.48;;;21.55;;
54545;SDS011;40444;45.184;9.850;2023-03-19T00:45:52;29.50;;;20.83;;
54545;SDS011;40444;45.184;9.850;2023-03-19T00:48:20;33.33;;;21.20;;
54545;SDS011;40444;45.184;9.850;2023-03-19T00:50:49;31.38;;;20.98;;
54545;SDS011;40444;45.184;9.850;2023-03-19T00:53:17;29.08;;;20.58;;
54545;SDS011;40444;45.184;9.850;2023-03-19T00:55:46;31.35;;;19.88;;
54545;SDS011;40444;45.184;9.850;2023-03-19T00:58:15;33.78;;;21.35;;
54545;SDS011;40444;45.184;9.850;2023-03-19T01:00:44;26.85;;;18.58;;
54545;SDS011;40444;45.184;9.850;2023-03-19T01:03:13;29.17;;;20.20;;
54545;SDS011;40444;45.184;9.850;2023-03-19T01:05:42;30.20;;;20.23;;
54545;SDS011;40444;45.184;9.850;2023-03-19T01:08:11;27.52;;;20.75;;
54545;SDS011;40444;45.184;9.850;2023-03-19T01:10:39;28.48;;;19.90;;
54545;SDS011;40444;45.184;9.850;2023-03-19T01:13:08;29.95;;;19.45;;
54545;SDS011;40444;45.184;9.850;2023-03-19T01:15:38;28.98;;;20.27;;
54545;SDS011;40444;45.184;9.850;2023-03-19T01:18:08;28.65;;;20.10;;
54545;SDS011;40444;45.184;9.850;2023-03-19T01:20:38;28.48;;;19.30;;
54545;SDS011;40444;45.184;9.850;2023-03-19T01:23:09;32.38;;;20.58;;
54545;SDS011;40444;45.184;9.850;2023-03-19T01:25:38;29.30;;;19.80;;
54545;SDS011;40444;45.184;9.850;2023-03-19T01:28:06;26.80;;;19.17;;
54545;SDS011;40444;45.184;9.850;2023-03-19T01:30:37;28.38;;;20.02;;
54545;SDS011;40444;45.184;9.850;2023-03-19T01:33:26;26.33;;;19.30;;
54545;SDS011;40444;45.184;9.850;2023-03-19T01:36:00;27.30;;;20.02;;
54545;SDS011;40444;45.184;9.850;2023-03-19T01:38:39;26.50;;;19.63;;
54545;SDS011;40444;45.184;9.850;2023-03-19T01:41:13;27.88;;;19.60;;
54545;SDS011;40444;45.184;9.850;2023-03-19T01:43:43;29.58;;;20.02;;
54545;SDS011;40444;45.184;9.850;2023-03-19T01:46:32;28.70;;;19.55;;
54545;SDS011;40444;45.184;9.850;2023-03-19T01:49:24;30.38;;;19.27;;
54545;SDS011;40444;45.184;9.850;2023-03-19T01:52:17;27.33;;;18.48;;
54545;SDS011;40444;45.184;9.850;2023-03-19T01:55:03;28.10;;;18.75;;
54545;SDS011;40444;45.184;9.850;2023-03-19T01:57:49;26.83;;;18.25;;
54545;SDS011;40444;45.184;9.850;2023-03-19T02:00:33;26.52;;;18.30;;
54545;SDS011;40444;45.184;9.850;2023-03-19T02:03:03;25.58;;;18.52;;
54545;SDS011;40444;45.184;9.850;2023-03-19T02:05:48;25.55;;;17.60;;
54545;SDS011;40444;45.184;9.850;2023-03-19T02:08:21;29.27;;;19.90;;
54545;SDS011;40444;45.184;9.850;2023-03-19T02:10:51;28.27;;;18.92;;
54545;SDS011;40444;45.184;9.850;2023-03-19T02:13:23;27.83;;;19.95;;
54545;SDS011;40444;45.184;9.850;2023-03-19T02:15:51;29.58;;;19.08;;
54545;SDS011;40444;45.184;9.850;2023-03-19T02:18:23;27.08;;;19.90;;
54545;SDS011;40444;45.184;9.850;2023-03-19T02:23:50;28.52;;;19.98;;
54545;SDS011;40444;45.184;9.850;2023-03-19T02:26:47;28.85;;;19.85;;
54545;SDS011;40444;45.184;9.850;2023-03-19T02:29:17;29.70;;;20.30;;
54545;SDS011;40444;45.184;9.850;2023-03-19T02:31:46;31.33;;;21.42;;
54545;SDS011;40444;45.184;9.850;2023-03-19T02:36:51;26.10;;;18.25;;
54545;SDS011;40444;45.184;9.850;2023-03-19T02:42:12;27.85;;;19.83;;
54545;SDS011;40444;45.184;9.850;2023-03-19T02:44:42;24.58;;;18.73;;
54545;SDS011;40444;45.184;9.850;2023-03-19T02:47:10;29.75;;;20.13;;
54545;SDS011;40444;45.184;9.850;2023-03-19T02:49:38;26.05;;;18.02;;
54545;SDS011;40444;45.184;9.850;2023-03-19T02:52:07;26.98;;;18.58;;
54545;SDS011;40444;45.184;9.850;2023-03-19T02:54:36;25.95;;;19.38;;
54545;SDS011;40444;45.184;9.850;2023-03-19T02:57:05;27.20;;;19.45;;
54545;SDS011;40444;45.184;9.850;2023-03-19T02:59:33;26.90;;;20.58;;
54545;SDS011;40444;45.184;9.850;2023-03-19T03:02:03;27.10;;;19.80;;
54545;SDS011;40444;45.184;9.850;2023-03-19T03:04:31;29.27;;;20.67;;
54545;SDS011;40444;45.184;9.850;2023-03-19T03:07:02;28.63;;;19.98;;
54545;SDS011;40444;45.184;9.850;2023-03-19T03:09:31;30.77;;;21.05;;
54545;SDS011;40444;45.184;9.850;2023-03-19T03:12:00;27.55;;;19.23;;
54545;SDS011;40444;45.184;9.850;2023-03-19T03:14:28;25.70;;;19.63;;
54545;SDS011;40444;45.184;9.850;2023-03-19T03:16:57;27.05;;;19.08;;
54545;SDS011;40444;45.184;9.850;2023-03-19T03:19:26;29.17;;;18.80;;
54545;SDS011;40444;45.184;9.850;2023-03-19T03:21:55;28.52;;;18.60;;
54545;SDS011;40444;45.184;9.850;2023-03-19T03:24:23;25.45;;;18.13;;
54545;SDS011;40444;45.184;9.850;2023-03-19T03:26:51;26.40;;;18.17;;
54545;SDS011;40444;45.184;9.850;2023-03-19T03:29:20;29.80;;;18.02;;
54545;SDS011;40444;45.184;9.850;2023-03-19T03:31:48;26.77;;;18.73;;
54545;SDS011;40444;45.184;9.850;2023-03-19T03:34:17;26.17;;;17.48;;
54545;SDS011;40444;45.184;9.850;2023-03-19T03:36:46;24.40;;;18.33;;
54545;SDS011;40444;45.184;9.850;2023-03-19T03:39:15;22.30;;;16.77;;
54545;SDS011;40444;45.184;9.850;2023-03-19T03:41:43;24.42;;;17.15;;
54545;SDS011;40444;45.184;9.850;2023-03-19T03:44:12;26.73;;;18.52;;
54545;SDS011;40444;45.184;9.850;2023-03-19T03:46:41;29.98;;;20.55;;
54545;SDS011;40444;45.184;9.850;2023-03-19T03:49:10;31.73;;;20.55;;
54545;SDS011;40444;45.184;9.850;2023-03-19T03:51:39;26.73;;;18.67;;
54545;SDS011;40444;45.184;9.850;2023-03-19T03:54:08;28.17;;;18.65;;
54545;SDS011;40444;45.184;9.850;2023-03-19T03:56:37;25.35;;;17.83;;
54545;SDS011;40444;45.184;9.850;2023-03-19T03:59:05;24.88;;;18.00;;
54545;SDS011;40444;45.184;9.850;2023-03-19T04:01:34;26.80;;;18.48;;
54545;SDS011;40444;45.184;9.850;2023-03-19T04:04:04;25.60;;;18.10;;
54545;SDS011;40444;45.184;9.850;2023-03-19T04:06:32;24.00;;;16.92;;
54545;SDS011;40444;45.184;9.850;2023-03-19T04:09:24;24.92;;;16.45;;
54545;SDS011;40444;45.184;9.850;2023-03-19T04:11:53;23.23;;;16.65;;
54545;SDS011;40444;45.184;9.850;2023-03-19T04:14:22;23.50;;;15.93;;
54545;SDS011;40444;45.184;9.850;2023-03-19T04:16:50;24.42;;;15.85;;
54545;SDS011;40444;45.184;9.850;2023-03-19T04:19:18;24.10;;;16.25;;
54545;SDS011;40444;45.184;9.850;2023-03-19T04:21:48;24.90;;;16.77;;
54545;SDS011;40444;45.184;9.850;2023-03-19T04:24:16;25.30;;;17.33;;
54545;SDS011;40444;45.184;9.850;2023-03-19T04:26:45;23.92;;;16.92;;
54545;SDS011;40444;45.184;9.850;2023-03-19T04:29:16;25.42;;;16.88;;
54545;SDS011;40444;45.184;9.850;2023-03-19T04:31:46;25.17;;;17.50;;
54545;SDS011;40444;45.184;9.850;2023-03-19T04:34:14;25.75;;;17.35;;
54545;SDS011;40444;45.184;9.850;2023-03-19T04:36:43;29.30;;;18.92;;
54545;SDS011;40444;45.184;9.850;2023-03-19T04:39:11;25.27;;;16.98;;
54545;SDS011;40444;45.184;9.850;2023-03-19T04:41:39;29.02;;;19.23;;
54545;SDS011;40444;45.184;9.850;2023-03-19T04:44:26;26.80;;;19.50;;
54545;SDS011;40444;45.184;9.850;2023-03-19T04:46:55;27.73;;;19.73;;
54545;SDS011;40444;45.184;9.850;2023-03-19T04:49:24;29.60;;;20.13;;
54545;SDS011;40444;45.184;9.850;2023-03-19T04:51:55;27.08;;;19.27;;
54545;SDS011;40444;45.184;9.850;2023-03-19T04:54:24;26.63;;;19.30;;
54545;SDS011;40444;45.184;9.850;2023-03-19T04:56:54;28.02;;;19.42;;
54545;SDS011;40444;45.184;9.850;2023-03-19T04:59:26;25.23;;;16.98;;
54545;SDS011;40444;45.184;9.850;2023-03-19T05:01:55;25.13;;;17.50;;
54545;SDS011;40444;45.184;9.850;2023-03-19T05:04:24;22.42;;;16.98;;
54545;SDS011;40444;45.184;9.850;2023-03-19T05:07:00;24.77;;;17.60;;
54545;SDS011;40444;45.184;9.850;2023-03-19T05:09:29;24.88;;;17.70;;
54545;SDS011;40444;45.184;9.850;2023-03-19T05:11:58;27.52;;;18.48;;
54545;SDS011;40444;45.184;9.850;2023-03-19T18:29:01;23.10;;;14.67;;
54545;SDS011;40444;45.184;9.850;2023-03-19T18:31:30;22.85;;;15.30;;
54545;SDS011;40444;45.184;9.850;2023-03-19T18:33:59;21.95;;;14.40;;
54545;SDS011;40444;45.184;9.850;2023-03-19T18:36:32;24.55;;;14.75;;
54545;SDS011;40444;45.184;9.850;2023-03-19T18:39:02;23.17;;;14.65;;
54545;SDS011;40444;45.184;9.850;2023-03-19T18:41:30;18.25;;;14.13;;
54545;SDS011;40444;45.184;9.850;2023-03-19T18:44:03;18.75;;;14.15;;
54545;SDS011;40444;45.184;9.850;2023-03-19T18:46:33;20.33;;;14.45;;
54545;SDS011;40444;45.184;9.850;2023-03-19T18:49:05;20.00;;;13.80;;
54545;SDS011;40444;45.184;9.850;2023-03-19T18:51:44;18.25;;;13.65;;
54545;SDS011;40444;45.184;9.850;2023-03-19T18:54:28;18.30;;;13.00;;
54545;SDS011;40444;45.184;9.850;2023-03-19T18:57:00;19.35;;;13.80;;
54545;SDS011;40444;45.184;9.850;2023-03-19T18:59:30;18.42;;;13.23;;
54545;SDS011;40444;45.184;9.850;2023-03-19T19:02:01;19.75;;;13.40;;
54545;SDS011;40444;45.184;9.850;2023-03-19T19:04:41;20.40;;;13.13;;
54545;SDS011;40444;45.184;9.850;2023-03-19T19:07:11;19.17;;;13.63;;
54545;SDS011;40444;45.184;9.850;2023-03-19T19:09:41;23.35;;;14.40;;
54545;SDS011;40444;45.184;9.850;2023-03-19T19:12:14;17.65;;;13.20;;
54545;SDS011;40444;45.184;9.850;2023-03-19T19:14:45;20.52;;;14.38;;
54545;SDS011;40444;45.184;9.850;2023-03-19T19:17:18;19.63;;;14.57;;
54545;SDS011;40444;45.184;9.850;2023-03-19T19:19:50;20.38;;;13.75;;
54545;SDS011;40444;45.184;9.850;2023-03-19T19:22:19;18.13;;;13.75;;
54545;SDS011;40444;45.184;9.850;2023-03-19T19:24:47;19.60;;;14.68;;
54545;SDS011;40444;45.184;9.850;2023-03-19T19:27:17;19.80;;;14.38;;
54545;SDS011;40444;45.184;9.850;2023-03-19T19:29:48;21.42;;;15.25;;
54545;SDS011;40444;45.184;9.850;2023-03-19T19:32:21;21.02;;;15.73;;
54545;SDS011;40444;45.184;9.850;2023-03-19T19:34:51;20.75;;;15.57;;
54545;SDS011;40444;45.184;9.850;2023-03-19T19:37:20;22.30;;;14.88;;
54545;SDS011;40444;45.184;9.850;2023-03-19T19:39:50;19.85;;;15.43;;
54545;SDS011;40444;45.184;9.850;2023-03-19T19:42:19;22.02;;;16.38;;
54545;SDS011;40444;45.184;9.850;2023-03-19T19:44:50;19.80;;;14.57;;
54545;SDS011;40444;45.184;9.850;2023-03-19T19:47:22;23.17;;;15.88;;
54545;SDS011;40444;45.184;9.850;2023-03-19T19:49:50;20.98;;;15.85;;
54545;SDS011;40444;45.184;9.850;2023-03-19T19:52:18;23.33;;;17.42;;
54545;SDS011;40444;45.184;9.850;2023-03-19T19:54:47;22.42;;;17.20;;
54545;SDS011;40444;45.184;9.850;2023-03-19T19:57:16;24.80;;;18.27;;
54545;SDS011;40444;45.184;9.850;2023-03-19T19:59:48;22.58;;;17.00;;
54545;SDS011;40444;45.184;9.850;2023-03-19T20:02:36;26.00;;;19.15;;
54545;SDS011;40444;45.184;9.850;2023-03-19T20:05:04;24.65;;;18.80;;
54545;SDS011;40444;45.184;9.850;2023-03-19T20:07:32;25.83;;;19.88;;
54545;SDS011;40444;45.184;9.850;2023-03-19T20:10:01;28.23;;;20.42;;
54545;SDS011;40444;45.184;9.850;2023-03-19T20:12:30;28.13;;;21.35;;
54545;SDS011;40444;45.184;9.850;2023-03-19T20:14:59;33.47;;;21.52;;
54545;SDS011;40444;45.184;9.850;2023-03-19T20:17:27;27.42;;;20.65;;
54545;SDS011;40444;45.184;9.850;2023-03-19T20:19:56;28.98;;;20.88;;
54545;SDS011;40444;45.184;9.850;2023-03-19T20:22:24;28.23;;;20.27;;
54545;SDS011;40444;45.184;9.850;2023-03-19T20:24:53;27.08;;;19.95;;
54545;SDS011;40444;45.184;9.850;2023-03-19T20:27:21;28.98;;;20.40;;
54545;SDS011;40444;45.184;9.850;2023-03-19T20:29:55;27.38;;;20.08;;
54545;SDS011;40444;45.184;9.850;2023-03-19T20:34:52;31.38;;;22.23;;
54545;SDS011;40444;45.184;9.850;2023-03-19T20:37:20;26.55;;;20.38;;
54545;SDS011;40444;45.184;9.850;2023-03-19T20:39:49;23.85;;;19.98;;
54545;SDS011;40444;45.184;9.850;2023-03-19T20:42:17;25.75;;;21.50;;
54545;SDS011;40444;45.184;9.850;2023-03-19T20:44:47;28.67;;;20.65;;
54545;SDS011;40444;45.184;9.850;2023-03-19T20:47:17;28.20;;;21.33;;
54545;SDS011;40444;45.184;9.850;2023-03-19T20:49:47;29.42;;;21.45;;
54545;SDS011;40444;45.184;9.850;2023-03-19T20:52:16;27.02;;;19.38;;
54545;SDS011;40444;45.184;9.850;2023-03-19T20:54:44;24.42;;;19.60;;
54545;SDS011;40444;45.184;9.850;2023-03-19T20:57:14;24.40;;;20.27;;
54545;SDS011;40444;45.184;9.850;2023-03-19T20:59:45;24.48;;;19.17;;
54545;SDS011;40444;45.184;9.850;2023-03-19T21:02:15;31.20;;;21.45;;
54545;SDS011;40444;45.184;9.850;2023-03-19T21:04:47;26.30;;;20.27;;
54545;SDS011;40444;45.184;9.850;2023-03-19T21:07:28;29.70;;;20.85;;
54545;SDS011;40444;45.184;9.850;2023-03-19T21:10:03;26.58;;;20.60;;
54545;SDS011;40444;45.184;9.850;2023-03-19T21:12:45;24.60;;;19.55;;
54545;SDS011;40444;45.184;9.850;2023-03-19T21:15:14;23.73;;;19.50;;
54545;SDS011;40444;45.184;9.850;2023-03-19T21:17:42;27.23;;;20.73;;
54545;SDS011;40444;45.184;9.850;2023-03-19T21:20:17;24.95;;;20.75;;
54545;SDS011;40444;45.184;9.850;2023-03-19T21:22:53;29.08;;;21.65;;
54545;SDS011;40444;45.184;9.850;2023-03-19T21:25:24;24.52;;;21.25;;
54545;SDS011;40444;45.184;9.850;2023-03-19T21:27:57;26.25;;;20.35;;
54545;SDS011;40444;45.184;9.850;2023-03-19T21:30:36;24.13;;;19.67;;
54545;SDS011;40444;45.184;9.850;2023-03-19T21:33:22;27.02;;;20.85;;
54545;SDS011;40444;45.184;9.850;2023-03-19T21:35:52;28.23;;;20.10;;
54545;SDS011;40444;45.184;9.850;2023-03-19T21:38:22;25.77;;;19.35;;
54545;SDS011;40444;45.184;9.850;2023-03-19T21:40:51;25.88;;;20.02;;
54545;SDS011;40444;45.184;9.850;2023-03-19T21:46:11;25.42;;;19.15;;
54545;SDS011;40444;45.184;9.850;2023-03-19T21:48:54;25.13;;;19.58;;
54545;SDS011;40444;45.184;9.850;2023-03-19T21:51:24;23.20;;;17.70;;
54545;SDS011;40444;45.184;9.850;2023-03-19T21:53:54;22.92;;;18.27;;
54545;SDS011;40444;45.184;9.850;2023-03-19T21:56:24;23.27;;;17.75;;
54545;SDS011;40444;45.184;9.850;2023-03-19T21:59:01;23.55;;;18.10;;
54545;SDS011;40444;45.184;9.850;2023-03-19T22:01:33;23.60;;;19.20;;
54545;SDS011;40444;45.184;9.850;2023-03-19T22:04:01;27.90;;;19.48;;
54545;SDS011;40444;45.184;9.850;2023-03-19T22:06:30;25.45;;;20.15;;
54545;SDS011;40444;45.184;9.850;2023-03-19T22:08:58;24.40;;;18.63;;
54545;SDS011;40444;45.184;9.850;2023-03-19T22:11:27;27.73;;;21.25;;
54545;SDS011;40444;45.184;9.850;2023-03-19T22:14:01;26.25;;;21.40;;
54545;SDS011;40444;45.184;9.850;2023-03-19T22:16:32;26.83;;;22.33;;
54545;SDS011;40444;45.184;9.850;2023-03-19T22:19:01;24.70;;;20.20;;
54545;SDS011;40444;45.184;9.850;2023-03-19T22:21:29;25.63;;;21.42;;
54545;SDS011;40444;45.184;9.850;2023-03-19T22:23:59;26.70;;;21.85;;
54545;SDS011;40444;45.184;9.850;2023-03-19T22:26:28;24.77;;;20.65;;
54545;SDS011;40444;45.184;9.850;2023-03-19T22:29:26;28.10;;;20.55;;
54545;SDS011;40444;45.184;9.850;2023-03-19T22:31:54;25.90;;;20.73;;
54545;SDS011;40444;45.184;9.850;2023-03-19T22:34:24;27.15;;;22.27;;
54545;SDS011;40444;45.184;9.850;2023-03-19T22:36:56;28.40;;;21.92;;
54545;SDS011;40444;45.184;9.850;2023-03-19T22:39:25;28.63;;;22.27;;
54545;SDS011;40444;45.184;9.850;2023-03-19T22:41:54;27.58;;;21.85;;
54545;SDS011;40444;45.184;9.850;2023-03-19T22:44:24;26.17;;;21.38;;
54545;SDS011;40444;45.184;9.850;2023-03-19T22:46:56;28.17;;;21.30;;
54545;SDS011;40444;45.184;9.850;2023-03-19T22:49:28;27.75;;;22.23;;
54545;SDS011;40444;45.184;9.850;2023-03-19T22:51:57;25.58;;;20.77;;
54545;SDS011;40444;45.184;9.850;2023-03-19T22:54:25;27.73;;;22.88;;
54545;SDS011;40444;45.184;9.850;2023-03-19T22:56:53;28.27;;;22.98;;
54545;SDS011;40444;45.184;9.850;2023-03-19T22:59:21;28.95;;;23.48;;
54545;SDS011;40444;45.184;9.850;2023-03-19T23:01:50;28.65;;;23.65;;
54545;SDS011;40444;45.184;9.850;2023-03-19T23:06:53;30.10;;;23.27;;
54545;SDS011;40444;45.184;9.850;2023-03-19T23:09:23;29.83;;;24.27;;
54545;SDS011;40444;45.184;9.850;2023-03-19T23:11:57;30.02;;;22.98;;
54545;SDS011;40444;45.184;9.850;2023-03-19T23:14:26;29.17;;;23.42;;
54545;SDS011;40444;45.184;9.850;2023-03-19T23:17:02;29.60;;;24.38;;
54545;SDS011;40444;45.184;9.850;2023-03-19T23:19:35;30.05;;;23.88;;
54545;SDS011;40444;45.184;9.850;2023-03-19T23:22:05;30.27;;;23.88;;
54545;SDS011;40444;45.184;9.850;2023-03-19T23:24:41;30.35;;;24.20;;
54545;SDS011;40444;45.184;9.850;2023-03-19T23:27:23;29.95;;;24.50;;
54545;SDS011;40444;45.184;9.850;2023-03-19T23:29:53;30.20;;;23.73;;
54545;SDS011;40444;45.184;9.850;2023-03-19T23:32:21;29.77;;;24.85;;
54545;SDS011;40444;45.184;9.850;2023-03-19T23:34:50;30.00;;;24.08;;
54545;SDS011;40444;45.184;9.850;2023-03-19T23:37:28;31.58;;;25.00;;
54545;SDS011;40444;45.184;9.850;2023-03-19T23:39:57;29.77;;;24.67;;
54545;SDS011;40444;45.184;9.850;2023-03-19T23:42:26;31.50;;;24.83;;
54545;SDS011;40444;45.184;9.850;2023-03-19T23:44:57;31.80;;;25.30;;
54545;SDS011;40444;45.184;9.850;2023-03-19T23:47:29;28.58;;;24.33;;
54545;SDS011;40444;45.184;9.850;2023-03-19T23:49:57;33.15;;;24.58;;
54545;SDS011;40444;45.184;9.850;2023-03-19T23:52:26;29.63;;;23.77;;
54545;SDS011;40444;45.184;9.850;2023-03-19T23:54:54;29.65;;;23.42;;
54545;SDS011;40444;45.184;9.850;2023-03-19T23:57:24;34.20;;;24.85;;
54545;SDS011;40444;45.184;9.850;2023-03-19T23:59:54;30.00;;;24.13;;
